Aérodrome :
LOGIN :

S'inscrire | Disclaimer

   EN    FR    IT 

 










Légende :    VFR   VFR Marginal   IFR   IFR Intensif   IFR Très Intensif
Visi : 
Plafond : 
>= 8 km
>= 3000ft
5 à 8 km
1000 à 3000 ft
1500m à 5 km
500 à 1000 ft
800 à 1500m
200 à 500 ft
< 800m
< 200 ft
Symboles :   Orages  Brouillard  Fortes neiges  Fortes précipitations  Vent > 20 kt
SIGMETs :   Divers  Orages  Givrage  Turbulence  Onde Orograph.  Cendres Volcan.






- Altitude de l'aérodrome : 7 ft
- Code IATA : XHE


LFTH - Hyeres

DERNIER METAR :
  • 081430Z AUTO 21008KT 180V240 CAVOK 27/19 Q1016 NOSIG

METARs EXPIRÉS :
  • 081400Z AUTO 23009KT 200V270 CAVOK 27/19 Q1017 NOSIG
  • 081330Z AUTO 22008KT 180V260 CAVOK 27/18 Q1017 NOSIG
  • 081300Z AUTO 23010KT CAVOK 28/17 Q1017 BECMG 13005KT
  • 081230Z AUTO 22009KT 180V250 CAVOK 28/18 Q1017 NOSIG
  • 081200Z AUTO 20008KT 150V240 CAVOK 28/18 Q1017 NOSIG

TAF TAF LFTH
Valide du 08 à 15h jusqu'au 09 à 15h UTC


081400Z 0815/0915 17006KT CAVOK
BECMG 0817/0819 23005KT
BECMG 0822/0824 VRB03KT
BECMG 0907/0909 22010KT



MET'MAP, la Météo Aéronautique d'un coup d'oeil ! - Copyright ORBIFLY Décembre 2007 - Disclaimer

ORBIFLY MET'MAP TEAM :

Programmation & Développement : Alexandra Zaïnal
Sur une idée originale de : Baudouin d'Aumeries
Assistance à la programmation : Marc-Olivier Méhu
Soutien technique & logistique : Manuel Goepfert

Contact : metmap@orbifly.com




SOURCES & CREDITS :

   NOAA